sensor_id;sensor_type;location;lat;lon;timestamp;temperature;humidity
71801;HTU21D;59647;55.838;37.292;2022-07-05T01:16:59;18.34;61.88
71801;HTU21D;59647;55.838;37.292;2022-07-05T01:19:26;18.53;61.54
71801;HTU21D;59647;55.838;37.292;2022-07-05T01:21:52;18.67;61.01
71801;HTU21D;59647;55.838;37.292;2022-07-05T01:24:19;18.80;60.62
71801;HTU21D;59647;55.838;37.292;2022-07-05T01:26:48;18.89;60.44
71801;HTU21D;59647;55.838;37.292;2022-07-05T01:29:15;18.99;60.13
71801;HTU21D;59647;55.838;37.292;2022-07-05T01:31:42;19.06;59.99
71801;HTU21D;59647;55.838;37.292;2022-07-05T01:34:08;19.12;59.85
71801;HTU21D;59647;55.838;37.292;2022-07-05T01:36:35;19.20;59.43
71801;HTU21D;59647;55.838;37.292;2022-07-05T01:39:03;19.27;59.41
71801;HTU21D;59647;55.838;37.292;2022-07-05T01:41:29;19.35;58.99
71801;HTU21D;59647;55.838;37.292;2022-07-05T01:43:55;19.43;58.95
71801;HTU21D;59647;55.838;37.292;2022-07-05T01:46:22;19.50;59.10
71801;HTU21D;59647;55.838;37.292;2022-07-05T01:48:50;19.55;58.93
71801;HTU21D;59647;55.838;37.292;2022-07-05T01:51:26;19.60;60.02
71801;HTU21D;59647;55.838;37.292;2022-07-05T01:53:55;19.66;58.79
71801;HTU21D;59647;55.838;37.292;2022-07-05T01:56:21;19.66;58.83
71801;HTU21D;59647;55.838;37.292;2022-07-05T01:58:48;19.66;58.78
71801;HTU21D;59647;55.838;37.292;2022-07-05T02:01:14;19.70;58.77
71801;HTU21D;59647;55.838;37.292;2022-07-05T02:03:40;19.70;58.67
71801;HTU21D;59647;55.838;37.292;2022-07-05T02:06:07;19.75;58.37
71801;HTU21D;59647;55.838;37.292;2022-07-05T02:08:36;19.81;58.25
71801;HTU21D;59647;55.838;37.292;2022-07-05T02:11:03;19.84;58.38
71801;HTU21D;59647;55.838;37.292;2022-07-05T02:13:29;19.90;58.25
71801;HTU21D;59647;55.838;37.292;2022-07-05T02:15:55;19.94;58.18
71801;HTU21D;59647;55.838;37.292;2022-07-05T02:18:22;20.01;57.95
71801;HTU21D;59647;55.838;37.292;2022-07-05T02:20:49;20.09;57.98
71801;HTU21D;59647;55.838;37.292;2022-07-05T02:23:15;20.16;57.84
71801;HTU21D;59647;55.838;37.292;2022-07-05T02:25:42;20.22;57.75
71801;HTU21D;59647;55.838;37.292;2022-07-05T02:28:13;20.31;57.48
71801;HTU21D;59647;55.838;37.292;2022-07-05T02:30:41;20.47;57.01
71801;HTU21D;59647;55.838;37.292;2022-07-05T02:33:07;20.56;57.01
71801;HTU21D;59647;55.838;37.292;2022-07-05T02:35:33;20.63;56.96
71801;HTU21D;59647;55.838;37.292;2022-07-05T02:37:59;20.75;56.63
71801;HTU21D;59647;55.838;37.292;2022-07-05T02:40:24;20.91;56.26
71801;HTU21D;59647;55.838;37.292;2022-07-05T02:42:51;21.05;56.13
71801;HTU21D;59647;55.838;37.292;2022-07-05T02:45:18;21.05;56.32
71801;HTU21D;59647;55.838;37.292;2022-07-05T02:47:49;21.00;56.60
71801;HTU21D;59647;55.838;37.292;2022-07-05T02:50:16;21.01;56.59
71801;HTU21D;59647;55.838;37.292;2022-07-05T02:52:46;21.04;56.60
71801;HTU21D;59647;55.838;37.292;2022-07-05T02:55:14;21.06;56.64
71801;HTU21D;59647;55.838;37.292;2022-07-05T02:57:40;21.11;56.38
71801;HTU21D;59647;55.838;37.292;2022-07-05T03:00:09;21.16;56.55
71801;HTU21D;59647;55.838;37.292;2022-07-05T03:02:42;21.19;56.61
71801;HTU21D;59647;55.838;37.292;2022-07-05T03:05:09;21.28;56.35
71801;HTU21D;59647;55.838;37.292;2022-07-05T03:07:37;21.32;56.37
71801;HTU21D;59647;55.838;37.292;2022-07-05T03:10:04;21.39;56.45
71801;HTU21D;59647;55.838;37.292;2022-07-05T03:12:30;21.48;56.36
71801;HTU21D;59647;55.838;37.292;2022-07-05T03:14:56;21.55;56.21
71801;HTU21D;59647;55.838;37.292;2022-07-05T03:17:22;21.67;55.66
71801;HTU21D;59647;55.838;37.292;2022-07-05T03:19:49;21.89;55.07
71801;HTU21D;59647;55.838;37.292;2022-07-05T03:22:18;22.10;54.77
71801;HTU21D;59647;55.838;37.292;2022-07-05T03:24:44;22.28;54.73
71801;HTU21D;59647;55.838;37.292;2022-07-05T03:27:11;22.46;54.45
71801;HTU21D;59647;55.838;37.292;2022-07-05T03:29:38;22.54;54.37
71801;HTU21D;59647;55.838;37.292;2022-07-05T03:32:05;22.70;54.11
71801;HTU21D;59647;55.838;37.292;2022-07-05T03:34:31;22.82;53.66
71801;HTU21D;59647;55.838;37.292;2022-07-05T03:36:59;22.98;53.28
71801;HTU21D;59647;55.838;37.292;2022-07-05T03:39:25;23.12;51.90
71801;HTU21D;59647;55.838;37.292;2022-07-05T03:41:51;23.28;52.30
71801;HTU21D;59647;55.838;37.292;2022-07-05T03:44:21;23.45;51.98
71801;HTU21D;59647;55.838;37.292;2022-07-05T03:46:47;23.61;51.61
71801;HTU21D;59647;55.838;37.292;2022-07-05T03:49:13;23.76;51.33
71801;HTU21D;59647;55.838;37.292;2022-07-05T03:51:39;23.92;51.06
71801;HTU21D;59647;55.838;37.292;2022-07-05T03:54:05;24.08;50.80
71801;HTU21D;59647;55.838;37.292;2022-07-05T03:56:32;24.25;50.56
71801;HTU21D;59647;55.838;37.292;2022-07-05T03:59:02;24.36;50.30
71801;HTU21D;59647;55.838;37.292;2022-07-05T04:01:30;24.49;50.06
71801;HTU21D;59647;55.838;37.292;2022-07-05T04:03:56;24.61;49.86
71801;HTU21D;59647;55.838;37.292;2022-07-05T04:06:24;24.73;49.69
71801;HTU21D;59647;55.838;37.292;2022-07-05T04:08:52;24.88;49.39
71801;HTU21D;59647;55.838;37.292;2022-07-05T04:11:18;25.03;49.11
71801;HTU21D;59647;55.838;37.292;2022-07-05T04:13:48;25.09;48.90
71801;HTU21D;59647;55.838;37.292;2022-07-05T04:16:14;25.17;48.79
71801;HTU21D;59647;55.838;37.292;2022-07-05T04:18:39;25.30;48.50
71801;HTU21D;59647;55.838;37.292;2022-07-05T04:21:05;25.37;48.36
71801;HTU21D;59647;55.838;37.292;2022-07-05T04:23:31;25.46;47.98
71801;HTU21D;59647;55.838;37.292;2022-07-05T04:25:58;25.48;47.74
71801;HTU21D;59647;55.838;37.292;2022-07-05T04:28:30;25.53;47.50
71801;HTU21D;59647;55.838;37.292;2022-07-05T04:30:57;25.62;47.52
71801;HTU21D;59647;55.838;37.292;2022-07-05T04:33:24;25.74;47.32
71801;HTU21D;59647;55.838;37.292;2022-07-05T04:35:53;25.80;47.22
71801;HTU21D;59647;55.838;37.292;2022-07-05T04:38:22;25.89;47.03
71801;HTU21D;59647;55.838;37.292;2022-07-05T04:40:49;25.94;46.73
71801;HTU21D;59647;55.838;37.292;2022-07-05T04:43:15;26.04;46.64
71801;HTU21D;59647;55.838;37.292;2022-07-05T04:45:44;26.13;46.49
71801;HTU21D;59647;55.838;37.292;2022-07-05T04:48:10;26.22;46.28
71801;HTU21D;59647;55.838;37.292;2022-07-05T04:50:38;26.30;46.11
71801;HTU21D;59647;55.838;37.292;2022-07-05T04:53:05;26.38;45.91
71801;HTU21D;59647;55.838;37.292;2022-07-05T04:55:31;26.48;45.77
71801;HTU21D;59647;55.838;37.292;2022-07-05T04:57:57;26.61;45.70
71801;HTU21D;59647;55.838;37.292;2022-07-05T05:00:23;26.73;45.66
71801;HTU21D;59647;55.838;37.292;2022-07-05T05:02:49;26.86;45.48
71801;HTU21D;59647;55.838;37.292;2022-07-05T05:05:14;26.92;45.06
71801;HTU21D;59647;55.838;37.292;2022-07-05T05:07:44;27.02;44.90
71801;HTU21D;59647;55.838;37.292;2022-07-05T05:10:11;27.13;44.83
71801;HTU21D;59647;55.838;37.292;2022-07-05T05:12:37;27.23;44.70
71801;HTU21D;59647;55.838;37.292;2022-07-05T05:15:03;27.29;44.42
71801;HTU21D;59647;55.838;37.292;2022-07-05T05:17:41;27.37;43.96
71801;HTU21D;59647;55.838;37.292;2022-07-05T05:20:15;27.52;44.44
71801;HTU21D;59647;55.838;37.292;2022-07-05T05:22:42;27.68;44.32
71801;HTU21D;59647;55.838;37.292;2022-07-05T05:25:09;27.81;44.10
71801;HTU21D;59647;55.838;37.292;2022-07-05T05:27:47;27.99;43.02
71801;HTU21D;59647;55.838;37.292;2022-07-05T05:30:17;28.14;43.47
71801;HTU21D;59647;55.838;37.292;2022-07-05T05:32:43;28.29;43.31
71801;HTU21D;59647;55.838;37.292;2022-07-05T05:35:09;28.45;43.14
71801;HTU21D;59647;55.838;37.292;2022-07-05T05:37:47;28.65;42.39
71801;HTU21D;59647;55.838;37.292;2022-07-05T05:40:14;28.85;42.80
71801;HTU21D;59647;55.838;37.292;2022-07-05T05:42:39;28.99;42.52
71801;HTU21D;59647;55.838;37.292;2022-07-05T05:45:05;29.13;41.91
71801;HTU21D;59647;55.838;37.292;2022-07-05T05:47:31;29.24;41.84
71801;HTU21D;59647;55.838;37.292;2022-07-05T05:49:57;29.39;41.21
71801;HTU21D;59647;55.838;37.292;2022-07-05T05:52:23;29.51;41.25
71801;HTU21D;59647;55.838;37.292;2022-07-05T05:54:49;29.67;41.21
71801;HTU21D;59647;55.838;37.292;2022-07-05T05:57:15;29.85;40.86
71801;HTU21D;59647;55.838;37.292;2022-07-05T05:59:40;30.00;40.86
71801;HTU21D;59647;55.838;37.292;2022-07-05T06:02:06;30.16;40.61
71801;HTU21D;59647;55.838;37.292;2022-07-05T06:04:32;30.33;40.46
71801;HTU21D;59647;55.838;37.292;2022-07-05T06:06:57;30.50;40.03
71801;HTU21D;59647;55.838;37.292;2022-07-05T06:09:23;30.60;39.72
71801;HTU21D;59647;55.838;37.292;2022-07-05T06:11:49;30.75;39.64
71801;HTU21D;59647;55.838;37.292;2022-07-05T06:14:15;30.85;38.13
71801;HTU21D;59647;55.838;37.292;2022-07-05T06:16:40;30.92;38.92
71801;HTU21D;59647;55.838;37.292;2022-07-05T06:19:06;31.13;39.04
71801;HTU21D;59647;55.838;37.292;2022-07-05T06:21:32;31.35;38.04
71801;HTU21D;59647;55.838;37.292;2022-07-05T06:23:58;31.34;37.67
71801;HTU21D;59647;55.838;37.292;2022-07-05T06:26:23;31.40;38.10
71801;HTU21D;59647;55.838;37.292;2022-07-05T06:28:49;31.57;38.15
71801;HTU21D;59647;55.838;37.292;2022-07-05T06:31:15;31.80;37.79
71801;HTU21D;59647;55.838;37.292;2022-07-05T06:33:41;31.96;37.48
71801;HTU21D;59647;55.838;37.292;2022-07-05T06:36:07;32.14;36.95
71801;HTU21D;59647;55.838;37.292;2022-07-05T06:38:32;32.19;36.43
71801;HTU21D;59647;55.838;37.292;2022-07-05T06:40:58;32.30;36.67
71801;HTU21D;59647;55.838;37.292;2022-07-05T06:43:25;32.54;36.56
71801;HTU21D;59647;55.838;37.292;2022-07-05T06:45:55;32.76;36.21
71801;HTU21D;59647;55.838;37.292;2022-07-05T06:48:21;32.92;35.22
71801;HTU21D;59647;55.838;37.292;2022-07-05T06:50:47;33.02;35.19
71801;HTU21D;59647;55.838;37.292;2022-07-05T06:53:13;33.13;35.16
71801;HTU21D;59647;55.838;37.292;2022-07-05T06:55:39;33.36;34.84
71801;HTU21D;59647;55.838;37.292;2022-07-05T06:58:10;33.35;30.65
71801;HTU21D;59647;55.838;37.292;2022-07-05T07:00:36;33.26;33.31
71801;HTU21D;59647;55.838;37.292;2022-07-05T07:03:02;33.36;33.94
71801;HTU21D;59647;55.838;37.292;2022-07-05T07:05:28;33.61;33.65
71801;HTU21D;59647;55.838;37.292;2022-07-05T07:07:54;33.86;33.66
71801;HTU21D;59647;55.838;37.292;2022-07-05T07:10:38;34.06;31.12
71801;HTU21D;59647;55.838;37.292;2022-07-05T07:13:04;34.29;33.19
71801;HTU21D;59647;55.838;37.292;2022-07-05T07:15:30;34.39;32.75
71801;HTU21D;59647;55.838;37.292;2022-07-05T07:17:57;34.26;32.54
71801;HTU21D;59647;55.838;37.292;2022-07-05T07:20:23;34.15;32.21
71801;HTU21D;59647;55.838;37.292;2022-07-05T07:22:48;34.14;32.38
71801;HTU21D;59647;55.838;37.292;2022-07-05T07:25:14;34.22;32.28
71801;HTU21D;59647;55.838;37.292;2022-07-05T07:27:44;34.29;32.05
71801;HTU21D;59647;55.838;37.292;2022-07-05T07:30:12;34.41;32.17
71801;HTU21D;59647;55.838;37.292;2022-07-05T07:32:38;34.39;32.12
71801;HTU21D;59647;55.838;37.292;2022-07-05T07:35:06;34.31;31.40
71801;HTU21D;59647;55.838;37.292;2022-07-05T07:37:32;34.15;31.84
71801;HTU21D;59647;55.838;37.292;2022-07-05T07:39:57;34.11;31.83
71801;HTU21D;59647;55.838;37.292;2022-07-05T07:42:24;34.01;31.54
71801;HTU21D;59647;55.838;37.292;2022-07-05T07:44:50;33.95;31.92
71801;HTU21D;59647;55.838;37.292;2022-07-05T07:47:16;33.90;31.90
71801;HTU21D;59647;55.838;37.292;2022-07-05T07:49:41;33.88;31.98
71801;HTU21D;59647;55.838;37.292;2022-07-05T07:52:07;33.89;31.99
71801;HTU21D;59647;55.838;37.292;2022-07-05T07:54:33;33.86;31.97
71801;HTU21D;59647;55.838;37.292;2022-07-05T07:56:59;33.93;31.61
71801;HTU21D;59647;55.838;37.292;2022-07-05T07:59:27;34.06;31.52
71801;HTU21D;59647;55.838;37.292;2022-07-05T08:01:53;0.00;31.36
71801;HTU21D;59647;55.838;37.292;2022-07-05T08:04:19;34.40;30.99
71801;HTU21D;59647;55.838;37.292;2022-07-05T08:06:44;34.57;30.75
71801;HTU21D;59647;55.838;37.292;2022-07-05T08:09:11;34.67;30.38
71801;HTU21D;59647;55.838;37.292;2022-07-05T08:11:38;34.84;29.99
71801;HTU21D;59647;55.838;37.292;2022-07-05T08:14:03;34.77;29.71
71801;HTU21D;59647;55.838;37.292;2022-07-05T08:16:29;34.77;29.65
71801;HTU21D;59647;55.838;37.292;2022-07-05T08:18:55;35.01;29.46
71801;HTU21D;59647;55.838;37.292;2022-07-05T08:21:39;35.21;29.36
71801;HTU21D;59647;55.838;37.292;2022-07-05T08:24:10;35.13;27.15
71801;HTU21D;59647;55.838;37.292;2022-07-05T08:26:37;34.84;28.08
71801;HTU21D;59647;55.838;37.292;2022-07-05T08:29:05;34.41;25.24
71801;HTU21D;59647;55.838;37.292;2022-07-05T08:31:33;34.16;28.94
71801;HTU21D;59647;55.838;37.292;2022-07-05T08:34:00;34.30;29.14
71801;HTU21D;59647;55.838;37.292;2022-07-05T08:36:26;34.57;29.21
71801;HTU21D;59647;55.838;37.292;2022-07-05T08:38:52;34.85;28.58
71801;HTU21D;59647;55.838;37.292;2022-07-05T08:41:20;34.97;27.86
71801;HTU21D;59647;55.838;37.292;2022-07-05T08:43:48;34.86;27.49
71801;HTU21D;59647;55.838;37.292;2022-07-05T08:46:16;34.59;27.90
71801;HTU21D;59647;55.838;37.292;2022-07-05T08:48:43;34.65;28.40
71801;HTU21D;59647;55.838;37.292;2022-07-05T08:51:14;34.63;27.75
71801;HTU21D;59647;55.838;37.292;2022-07-05T08:53:41;34.59;28.63
71801;HTU21D;59647;55.838;37.292;2022-07-05T08:56:08;34.62;28.87
71801;HTU21D;59647;55.838;37.292;2022-07-05T08:58:34;34.59;29.05
71801;HTU21D;59647;55.838;37.292;2022-07-05T09:01:00;34.49;29.51
71801;HTU21D;59647;55.838;37.292;2022-07-05T09:03:32;34.38;29.10
71801;HTU21D;59647;55.838;37.292;2022-07-05T09:06:00;34.33;29.25
71801;HTU21D;59647;55.838;37.292;2022-07-05T09:08:29;34.22;28.90
71801;HTU21D;59647;55.838;37.292;2022-07-05T09:10:59;33.94;29.71
71801;HTU21D;59647;55.838;37.292;2022-07-05T09:13:26;33.19;30.44
71801;HTU21D;59647;55.838;37.292;2022-07-05T09:15:52;32.23;31.77
71801;HTU21D;59647;55.838;37.292;2022-07-05T09:24:07;30.28;34.80
71801;HTU21D;59647;55.838;37.292;2022-07-05T09:29:05;29.44;36.27
71801;HTU21D;59647;55.838;37.292;2022-07-05T09:31:36;29.33;36.73
71801;HTU21D;59647;55.838;37.292;2022-07-05T09:34:10;29.16;38.15
71801;HTU21D;59647;55.838;37.292;2022-07-05T09:36:55;28.89;38.16
71801;HTU21D;59647;55.838;37.292;2022-07-05T09:39:36;28.34;43.03
71801;HTU21D;59647;55.838;37.292;2022-07-05T09:42:21;28.37;41.21
71801;HTU21D;59647;55.838;37.292;2022-07-05T09:47:17;29.23;40.11
71801;HTU21D;59647;55.838;37.292;2022-07-05T09:49:45;29.88;39.65
71801;HTU21D;59647;55.838;37.292;2022-07-05T09:52:35;30.60;43.23
71801;HTU21D;59647;55.838;37.292;2022-07-05T09:57:30;31.83;39.31
71801;HTU21D;59647;55.838;37.292;2022-07-05T10:00:10;32.35;38.94
71801;HTU21D;59647;55.838;37.292;2022-07-05T10:02:44;32.60;38.91
71801;HTU21D;59647;55.838;37.292;2022-07-05T10:05:18;32.61;38.32
71801;HTU21D;59647;55.838;37.292;2022-07-05T10:07:46;32.53;38.51
71801;HTU21D;59647;55.838;37.292;2022-07-05T10:10:15;32.30;39.72
71801;HTU21D;59647;55.838;37.292;2022-07-05T10:12:42;32.12;40.19
71801;HTU21D;59647;55.838;37.292;2022-07-05T10:15:13;31.99;41.22
71801;HTU21D;59647;55.838;37.292;2022-07-05T10:18:15;31.92;40.91
71801;HTU21D;59647;55.838;37.292;2022-07-05T10:20:42;31.75;43.09
71801;HTU21D;59647;55.838;37.292;2022-07-05T10:23:10;31.53;41.97
71801;HTU21D;59647;55.838;37.292;2022-07-05T10:25:37;31.23;42.51
71801;HTU21D;59647;55.838;37.292;2022-07-05T10:28:06;31.00;42.89
71801;HTU21D;59647;55.838;37.292;2022-07-05T10:30:33;31.05;42.81
71801;HTU21D;59647;55.838;37.292;2022-07-05T10:33:03;31.30;43.83
71801;HTU21D;59647;55.838;37.292;2022-07-05T10:35:29;31.81;42.78
71801;HTU21D;59647;55.838;37.292;2022-07-05T10:37:56;32.09;42.32
71801;HTU21D;59647;55.838;37.292;2022-07-05T10:40:24;31.82;42.21
71801;HTU21D;59647;55.838;37.292;2022-07-05T10:42:55;31.08;43.45
71801;HTU21D;59647;55.838;37.292;2022-07-05T10:45:25;30.87;44.38
71801;HTU21D;59647;55.838;37.292;2022-07-05T10:50:54;30.82;43.49
71801;HTU21D;59647;55.838;37.292;2022-07-05T10:56:21;30.17;43.34
71801;HTU21D;59647;55.838;37.292;2022-07-05T10:58:47;29.73;44.09
71801;HTU21D;59647;55.838;37.292;2022-07-05T11:04:07;29.45;44.70
71801;HTU21D;59647;55.838;37.292;2022-07-05T11:12:02;29.45;44.05
71801;HTU21D;59647;55.838;37.292;2022-07-05T11:14:34;29.19;43.89
71801;HTU21D;59647;55.838;37.292;2022-07-05T11:22:24;29.34;43.80
71801;HTU21D;59647;55.838;37.292;2022-07-05T11:24:51;29.52;43.54
71801;HTU21D;59647;55.838;37.292;2022-07-05T11:27:17;29.70;43.67
71801;HTU21D;59647;55.838;37.292;2022-07-05T11:29:47;29.83;43.61
71801;HTU21D;59647;55.838;37.292;2022-07-05T11:32:16;29.89;43.71
71801;HTU21D;59647;55.838;37.292;2022-07-05T11:34:44;29.78;42.93
71801;HTU21D;59647;55.838;37.292;2022-07-05T11:39:45;29.17;43.38
71801;HTU21D;59647;55.838;37.292;2022-07-05T11:42:21;28.90;44.45
71801;HTU21D;59647;55.838;37.292;2022-07-05T11:44:50;28.77;44.22
71801;HTU21D;59647;55.838;37.292;2022-07-05T11:47:16;28.67;44.67
71801;HTU21D;59647;55.838;37.292;2022-07-05T11:49:53;28.45;46.67
71801;HTU21D;59647;55.838;37.292;2022-07-05T11:52:34;28.28;45.13
71801;HTU21D;59647;55.838;37.292;2022-07-05T11:55:02;28.00;45.11
71801;HTU21D;59647;55.838;37.292;2022-07-05T11:57:30;27.86;45.20
71801;HTU21D;59647;55.838;37.292;2022-07-05T11:59:55;27.72;45.44
71801;HTU21D;59647;55.838;37.292;2022-07-05T12:02:21;27.58;45.90
71801;HTU21D;59647;55.838;37.292;2022-07-05T12:04:54;27.39;47.44
71801;HTU21D;59647;55.838;37.292;2022-07-05T12:07:32;27.21;47.54
71801;HTU21D;59647;55.838;37.292;2022-07-05T12:09:58;26.98;47.06
71801;HTU21D;59647;55.838;37.292;2022-07-05T12:12:44;26.90;46.73
71801;HTU21D;59647;55.838;37.292;2022-07-05T12:15:19;26.91;46.90
71801;HTU21D;59647;55.838;37.292;2022-07-05T12:17:50;26.87;46.84
71801;HTU21D;59647;55.838;37.292;2022-07-05T12:20:24;26.84;46.67
71801;HTU21D;59647;55.838;37.292;2022-07-05T12:22:51;26.77;46.83
71801;HTU21D;59647;55.838;37.292;2022-07-05T12:25:19;26.67;47.15
71801;HTU21D;59647;55.838;37.292;2022-07-05T12:27:47;26.27;48.69
71801;HTU21D;59647;55.838;37.292;2022-07-05T12:30:13;25.93;48.92
71801;HTU21D;59647;55.838;37.292;2022-07-05T12:33:00;25.78;52.61
71801;HTU21D;59647;55.838;37.292;2022-07-05T12:35:30;25.79;50.66
71801;HTU21D;59647;55.838;37.292;2022-07-05T12:38:04;25.80;53.27
71801;HTU21D;59647;55.838;37.292;2022-07-05T12:40:31;25.79;50.53
71801;HTU21D;59647;55.838;37.292;2022-07-05T12:45:31;25.89;50.82
71801;HTU21D;59647;55.838;37.292;2022-07-05T12:47:58;25.93;51.08
71801;HTU21D;59647;55.838;37.292;2022-07-05T12:50:26;25.92;51.04
71801;HTU21D;59647;55.838;37.292;2022-07-05T12:55:21;25.78;51.50
71801;HTU21D;59647;55.838;37.292;2022-07-05T12:58:05;25.73;51.55
71801;HTU21D;59647;55.838;37.292;2022-07-05T13:00:31;25.67;52.34
71801;HTU21D;59647;55.838;37.292;2022-07-05T13:02:57;25.60;51.89
71801;HTU21D;59647;55.838;37.292;2022-07-05T13:05:24;25.54;52.96
71801;HTU21D;59647;55.838;37.292;2022-07-05T13:07:51;25.44;52.69
71801;HTU21D;59647;55.838;37.292;2022-07-05T13:10:18;25.36;52.43
71801;HTU21D;59647;55.838;37.292;2022-07-05T13:12:44;25.36;52.43
71801;HTU21D;59647;55.838;37.292;2022-07-05T13:15:10;25.34;52.22
71801;HTU21D;59647;55.838;37.292;2022-07-05T13:17:36;25.32;52.65
71801;HTU21D;59647;55.838;37.292;2022-07-05T13:20:02;25.31;52.58
71801;HTU21D;59647;55.838;37.292;2022-07-05T13:22:29;25.25;53.41
71801;HTU21D;59647;55.838;37.292;2022-07-05T13:24:55;25.27;53.04
71801;HTU21D;59647;55.838;37.292;2022-07-05T13:27:21;25.28;53.19
71801;HTU21D;59647;55.838;37.292;2022-07-05T13:29:47;25.27;53.17
71801;HTU21D;59647;55.838;37.292;2022-07-05T13:32:14;25.25;53.13
71801;HTU21D;59647;55.838;37.292;2022-07-05T13:34:45;25.23;52.98
71801;HTU21D;59647;55.838;37.292;2022-07-05T13:37:11;25.19;53.06
71801;HTU21D;59647;55.838;37.292;2022-07-05T13:39:37;25.12;53.37
71801;HTU21D;59647;55.838;37.292;2022-07-05T13:42:05;25.02;53.47
71801;HTU21D;59647;55.838;37.292;2022-07-05T13:44:31;24.92;53.43
71801;HTU21D;59647;55.838;37.292;2022-07-05T13:46:58;24.83;53.61
71801;HTU21D;59647;55.838;37.292;2022-07-05T13:49:23;24.70;53.45
71801;HTU21D;59647;55.838;37.292;2022-07-05T13:51:50;24.63;53.26
71801;HTU21D;59647;55.838;37.292;2022-07-05T13:54:15;24.57;53.24
71801;HTU21D;59647;55.838;37.292;2022-07-05T13:56:42;24.53;53.60
71801;HTU21D;59647;55.838;37.292;2022-07-05T13:59:08;24.48;53.71
71801;HTU21D;59647;55.838;37.292;2022-07-05T14:01:34;24.46;53.89
71801;HTU21D;59647;55.838;37.292;2022-07-05T14:04:01;24.46;54.23
71801;HTU21D;59647;55.838;37.292;2022-07-05T14:06:30;24.46;54.12
71801;HTU21D;59647;55.838;37.292;2022-07-05T14:08:57;24.46;54.15
71801;HTU21D;59647;55.838;37.292;2022-07-05T14:11:22;24.48;54.15
71801;HTU21D;59647;55.838;37.292;2022-07-05T14:13:52;24.50;54.59
71801;HTU21D;59647;55.838;37.292;2022-07-05T14:16:18;24.51;54.44
71801;HTU21D;59647;55.838;37.292;2022-07-05T14:18:44;24.54;54.42
71801;HTU21D;59647;55.838;37.292;2022-07-05T14:21:10;24.59;55.07
71801;HTU21D;59647;55.838;37.292;2022-07-05T14:23:41;24.62;54.67
71801;HTU21D;59647;55.838;37.292;2022-07-05T14:26:07;24.62;55.13
71801;HTU21D;59647;55.838;37.292;2022-07-05T14:28:34;24.62;54.99
71801;HTU21D;59647;55.838;37.292;2022-07-05T14:31:00;24.69;54.87
71801;HTU21D;59647;55.838;37.292;2022-07-05T14:33:26;24.77;55.10
71801;HTU21D;59647;55.838;37.292;2022-07-05T14:35:51;24.85;54.46
71801;HTU21D;59647;55.838;37.292;2022-07-05T14:38:17;24.88;54.24
71801;HTU21D;59647;55.838;37.292;2022-07-05T14:40:43;24.88;54.17
71801;HTU21D;59647;55.838;37.292;2022-07-05T14:43:09;24.86;54.10
71801;HTU21D;59647;55.838;37.292;2022-07-05T14:45:35;24.82;53.84
71801;HTU21D;59647;55.838;37.292;2022-07-05T14:48:01;24.76;54.45
71801;HTU21D;59647;55.838;37.292;2022-07-05T14:50:26;24.63;54.48
71801;HTU21D;59647;55.838;37.292;2022-07-05T14:52:52;24.57;54.39
71801;HTU21D;59647;55.838;37.292;2022-07-05T14:55:18;24.49;55.26
71801;HTU21D;59647;55.838;37.292;2022-07-05T14:57:44;24.46;54.24
71801;HTU21D;59647;55.838;37.292;2022-07-05T15:00:13;24.46;54.53
71801;HTU21D;59647;55.838;37.292;2022-07-05T15:02:39;24.44;53.97
71801;HTU21D;59647;55.838;37.292;2022-07-05T15:05:06;24.42;54.01
71801;HTU21D;59647;55.838;37.292;2022-07-05T15:07:33;24.38;53.91
71801;HTU21D;59647;55.838;37.292;2022-07-05T15:09:59;24.34;54.04
71801;HTU21D;59647;55.838;37.292;2022-07-05T15:12:25;24.31;54.05
71801;HTU21D;59647;55.838;37.292;2022-07-05T15:14:51;24.32;54.04
71801;HTU21D;59647;55.838;37.292;2022-07-05T15:17:17;24.29;54.17
71801;HTU21D;59647;55.838;37.292;2022-07-05T15:19:43;24.25;54.04
71801;HTU21D;59647;55.838;37.292;2022-07-05T15:22:08;24.23;54.06
71801;HTU21D;59647;55.838;37.292;2022-07-05T15:24:36;24.19;54.24
71801;HTU21D;59647;55.838;37.292;2022-07-05T15:27:02;24.13;54.38
71801;HTU21D;59647;55.838;37.292;2022-07-05T15:29:28;24.11;54.41
71801;HTU21D;59647;55.838;37.292;2022-07-05T15:31:56;24.06;54.51
71801;HTU21D;59647;55.838;37.292;2022-07-05T15:34:22;24.06;54.62
71801;HTU21D;59647;55.838;37.292;2022-07-05T15:36:48;24.02;54.74
71801;HTU21D;59647;55.838;37.292;2022-07-05T15:39:14;23.97;54.90
71801;HTU21D;59647;55.838;37.292;2022-07-05T15:41:40;23.89;55.64
71801;HTU21D;59647;55.838;37.292;2022-07-05T15:44:06;23.75;57.05
71801;HTU21D;59647;55.838;37.292;2022-07-05T15:46:32;23.68;56.23
71801;HTU21D;59647;55.838;37.292;2022-07-05T15:49:17;23.64;56.15
71801;HTU21D;59647;55.838;37.292;2022-07-05T15:51:44;23.61;56.06
71801;HTU21D;59647;55.838;37.292;2022-07-05T15:54:09;23.59;56.10
71801;HTU21D;59647;55.838;37.292;2022-07-05T15:56:35;23.60;56.02
71801;HTU21D;59647;55.838;37.292;2022-07-05T15:59:02;23.62;56.03
71801;HTU21D;59647;55.838;37.292;2022-07-05T16:01:28;23.62;56.68
71801;HTU21D;59647;55.838;37.292;2022-07-05T16:03:54;23.59;56.29
71801;HTU21D;59647;55.838;37.292;2022-07-05T16:06:20;23.57;56.29
71801;HTU21D;59647;55.838;37.292;2022-07-05T16:08:46;23.55;56.42
71801;HTU21D;59647;55.838;37.292;2022-07-05T16:11:12;23.56;56.24
71801;HTU21D;59647;55.838;37.292;2022-07-05T16:13:38;23.61;56.10
71801;HTU21D;59647;55.838;37.292;2022-07-05T16:16:04;23.62;56.18
71801;HTU21D;59647;55.838;37.292;2022-07-05T16:18:37;23.65;56.26
71801;HTU21D;59647;55.838;37.292;2022-07-05T16:21:03;23.66;56.32
71801;HTU21D;59647;55.838;37.292;2022-07-05T16:23:31;23.65;56.48
71801;HTU21D;59647;55.838;37.292;2022-07-05T16:26:00;23.61;56.39
71801;HTU21D;59647;55.838;37.292;2022-07-05T16:28:27;23.59;56.23
71801;HTU21D;59647;55.838;37.292;2022-07-05T16:30:55;23.58;56.34
71801;HTU21D;59647;55.838;37.292;2022-07-05T16:33:21;23.54;56.61
71801;HTU21D;59647;55.838;37.292;2022-07-05T16:35:47;23.49;56.47
71801;HTU21D;59647;55.838;37.292;2022-07-05T16:38:13;23.43;56.51
71801;HTU21D;59647;55.838;37.292;2022-07-05T16:40:40;23.41;56.39
71801;HTU21D;59647;55.838;37.292;2022-07-05T16:43:06;23.39;56.47
71801;HTU21D;59647;55.838;37.292;2022-07-05T16:45:32;23.39;56.48
71801;HTU21D;59647;55.838;37.292;2022-07-05T16:47:57;23.39;56.49
71801;HTU21D;59647;55.838;37.292;2022-07-05T16:50:23;23.39;56.55
71801;HTU21D;59647;55.838;37.292;2022-07-05T16:52:49;23.37;56.47
71801;HTU21D;59647;55.838;37.292;2022-07-05T16:55:15;23.37;56.47
71801;HTU21D;59647;55.838;37.292;2022-07-05T16:57:41;23.35;56.50
71801;HTU21D;59647;55.838;37.292;2022-07-05T17:00:07;23.32;56.71
71801;HTU21D;59647;55.838;37.292;2022-07-05T17:02:33;23.30;56.55